Time;durP1;ratioP1;P1;durP2;ratioP2;P2;SDS_P1;SDS_P2;PMS_P1;PMS_P2;Temp;Humidity;BMP_temperature;BMP_pressure;BME280_temperature;BME280_humidity;BME280_pressure;Samples;Min_cycle;Max_cycle;Signal;HPM_P1;HPM_P2
2021/12/14 00:00:54;;;;;;;1.60;1.05;;;11.10;99.90;;;;;;4996775;28;20264;-76
2021/12/14 00:03:23;;;;;;;1.40;1.10;;;11.10;99.90;;;;;;5014367;28;20174;-77
2021/12/14 00:05:50;;;;;;;2.10;1.00;;;11.20;99.90;;;;;;5013949;28;20677;-77
2021/12/14 00:08:16;;;;;;;1.92;1.02;;;11.20;99.90;;;;;;5031954;28;20546;-76
2021/12/14 00:11:55;;;;;;;1.92;1.30;;;11.20;99.90;;;;;;5031153;28;20275;-77
2021/12/14 00:13:53;;;;;;;1.70;1.08;;;11.20;99.90;;;;;;5018062;28;20198;-77
2021/12/14 00:16:19;;;;;;;2.00;1.60;;;11.20;99.90;;;;;;5031547;28;20200;-77
2021/12/14 00:18:45;;;;;;;2.00;1.20;;;11.20;99.90;;;;;;4997784;28;20174;-77
2021/12/14 00:21:29;;;;;;;1.80;1.10;;;11.20;99.90;;;;;;5013504;28;20170;-77
2021/12/14 00:24:06;;;;;;;1.50;1.13;;;11.30;99.90;;;;;;5031482;28;20591;-76
2021/12/14 00:26:41;;;;;;;1.42;1.00;;;11.30;99.90;;;;;;5031369;28;20189;-76
2021/12/14 00:29:12;;;;;;;1.73;1.00;;;11.30;99.90;;;;;;5013414;28;20185;-76
2021/12/14 00:31:38;;;;;;;1.50;0.90;;;11.40;99.90;;;;;;5013461;28;20725;-76
2021/12/14 00:34:06;;;;;;;2.05;1.25;;;11.40;99.90;;;;;;5031341;28;20209;-76
2021/12/14 00:36:32;;;;;;;1.70;1.20;;;11.40;99.90;;;;;;5013910;28;20188;-76
2021/12/14 00:39:01;;;;;;;1.38;0.93;;;11.40;99.90;;;;;;4996830;28;20193;-76
2021/12/14 00:41:31;;;;;;;1.90;1.20;;;11.40;99.90;;;;;;5032137;28;20196;-76
2021/12/14 00:43:57;;;;;;;1.90;1.40;;;11.40;99.90;;;;;;5032357;28;20173;-76
2021/12/14 00:46:23;;;;;;;2.20;1.30;;;11.50;99.90;;;;;;5014646;28;20315;-76
2021/12/14 00:48:50;;;;;;;1.70;1.20;;;11.50;99.90;;;;;;5014437;28;20173;-76
2021/12/14 00:51:21;;;;;;;2.00;1.30;;;11.50;99.90;;;;;;5014673;28;20197;-76
2021/12/14 00:53:47;;;;;;;1.70;1.20;;;11.50;99.90;;;;;;5013880;28;20266;-76
2021/12/14 00:56:13;;;;;;;2.53;1.40;;;11.50;99.90;;;;;;5031219;28;20216;-76
2021/12/14 00:58:40;;;;;;;3.15;1.60;;;11.50;99.90;;;;;;4997427;28;20177;-76
2021/12/14 01:01:20;;;;;;;2.05;1.25;;;11.60;99.90;;;;;;4996897;28;20232;-75
2021/12/14 01:03:51;;;;;;;2.10;1.77;;;11.60;99.90;;;;;;4997636;28;20503;-76
2021/12/14 01:06:19;;;;;;;1.98;1.77;;;11.60;99.90;;;;;;5013516;28;20189;-76
2021/12/14 01:08:46;;;;;;;2.00;1.33;;;11.60;99.90;;;;;;4997647;28;20169;-76
2021/12/14 01:11:23;;;;;;;2.58;1.33;;;11.60;99.90;;;;;;4998270;28;20204;-76
2021/12/14 01:14:05;;;;;;;2.17;1.65;;;11.60;99.90;;;;;;5017443;28;20170;-76
2021/12/14 01:16:49;;;;;;;1.77;1.38;;;11.60;99.90;;;;;;5000939;28;20181;-76
2021/12/14 01:19:24;;;;;;;1.90;1.45;;;11.60;99.90;;;;;;5000724;28;20226;-76
2021/12/14 01:22:30;;;;;;;2.00;1.35;;;11.60;99.90;;;;;;5017348;28;20664;-76
2021/12/14 01:25:06;;;;;;;2.90;1.70;;;11.60;99.90;;;;;;5017223;28;20193;-76
2021/12/14 01:27:55;;;;;;;2.50;1.65;;;11.60;99.90;;;;;;5000958;28;20173;-75
2021/12/14 01:30:26;;;;;;;1.73;1.38;;;11.60;99.90;;;;;;5018412;28;20173;-77
2021/12/14 01:32:55;;;;;;;1.90;1.40;;;11.60;99.90;;;;;;5016733;28;20567;-77
2021/12/14 01:35:28;;;;;;;1.80;1.20;;;11.60;99.90;;;;;;5017256;28;20204;-77
2021/12/14 01:38:17;;;;;;;2.60;1.70;;;11.70;99.90;;;;;;5016977;28;20192;-77
2021/12/14 01:40:54;;;;;;;2.65;1.40;;;11.60;99.90;;;;;;5001520;28;20212;-77
2021/12/14 01:43:35;;;;;;;2.35;1.58;;;11.60;99.90;;;;;;5001970;28;20193;-77
2021/12/14 01:46:12;;;;;;;2.90;1.92;;;11.60;99.90;;;;;;5000229;28;20193;-77
2021/12/14 01:48:40;;;;;;;2.35;1.98;;;11.60;99.90;;;;;;5000196;28;20215;-77
2021/12/14 01:51:24;;;;;;;2.15;1.60;;;11.60;99.90;;;;;;5016491;28;20165;-76
2021/12/14 01:53:56;;;;;;;2.85;1.88;;;11.60;99.90;;;;;;5016106;28;20268;-77
2021/12/14 01:56:26;;;;;;;2.13;1.80;;;11.60;99.90;;;;;;5022720;28;20207;-85
2021/12/14 01:58:57;;;;;;;4.55;4.15;;;11.60;99.90;;;;;;5004408;28;20193;-85
2021/12/14 02:01:35;;;;;;;2.63;2.15;;;11.60;99.90;;;;;;5017795;28;20165;-85
2021/12/14 02:04:12;;;;;;;2.88;2.58;;;11.60;99.90;;;;;;5017653;28;20277;-84
2021/12/14 02:06:39;;;;;;;3.33;2.25;;;11.60;99.90;;;;;;5001529;28;20212;-85
2021/12/14 02:09:11;;;;;;;3.58;2.35;;;11.60;99.90;;;;;;5034835;28;20177;-84
2021/12/14 02:11:41;;;;;;;2.50;2.10;;;11.60;99.90;;;;;;5001157;28;20254;-85
2021/12/14 02:14:07;;;;;;;3.00;2.35;;;11.60;99.90;;;;;;5001590;28;20177;-85
2021/12/14 02:16:34;;;;;;;3.05;2.50;;;11.60;99.90;;;;;;5000861;28;20196;-84
2021/12/14 02:19:09;;;;;;;2.97;2.38;;;11.60;99.90;;;;;;5035207;28;20204;-85
2021/12/14 02:21:37;;;;;;;3.42;3.10;;;11.60;99.90;;;;;;5035630;28;20173;-83
2021/12/14 02:24:05;;;;;;;3.25;2.72;;;11.60;99.90;;;;;;5016389;28;20174;-84
2021/12/14 02:26:34;;;;;;;3.60;2.78;;;11.60;99.90;;;;;;5038679;28;20201;-84
2021/12/14 02:29:04;;;;;;;3.25;2.95;;;11.60;99.90;;;;;;5003050;28;20249;-84
2021/12/14 02:31:33;;;;;;;3.42;2.83;;;11.60;99.90;;;;;;5008289;28;20205;-83
2021/12/14 02:34:02;;;;;;;3.45;2.83;;;11.60;99.90;;;;;;5022530;28;20174;-84
2021/12/14 02:36:34;;;;;;;3.55;3.25;;;11.60;99.90;;;;;;5004197;28;20565;-84
2021/12/14 02:39:09;;;;;;;3.22;2.95;;;11.60;99.90;;;;;;5016391;28;20177;-84
2021/12/14 02:41:49;;;;;;;3.80;3.40;;;11.60;99.90;;;;;;5017050;28;20162;-84
2021/12/14 02:44:17;;;;;;;3.58;3.28;;;11.60;99.90;;;;;;5002116;28;20650;-84
2021/12/14 02:46:47;;;;;;;3.30;3.00;;;11.60;99.90;;;;;;5020778;28;20272;-84
2021/12/14 02:49:18;;;;;;;3.50;3.20;;;11.70;99.90;;;;;;5022799;28;20170;-84
2021/12/14 02:51:49;;;;;;;3.42;3.13;;;11.70;99.90;;;;;;5004771;28;20755;-84
2021/12/14 02:54:44;;;;;;;4.47;3.88;;;11.70;99.90;;;;;;5005203;28;20187;-84
2021/12/14 02:57:15;;;;;;;3.10;2.80;;;11.70;99.90;;;;;;5018111;28;20711;-85
2021/12/14 02:59:44;;;;;;;4.43;3.67;;;11.70;99.90;;;;;;5027053;28;20173;-85
2021/12/14 03:02:17;;;;;;;5.10;4.60;;;11.70;99.90;;;;;;5032727;28;20178;-85
2021/12/14 03:04:56;;;;;;;4.45;3.78;;;11.70;99.90;;;;;;5001020;28;20185;-85
2021/12/14 03:07:27;;;;;;;3.55;3.25;;;11.70;99.90;;;;;;5004732;28;20184;-85
2021/12/14 03:09:59;;;;;;;7.05;3.80;;;11.70;99.90;;;;;;5038775;28;20181;-85
2021/12/14 03:12:33;;;;;;;5.05;4.15;;;11.70;99.90;;;;;;5010153;28;20257;-83
2021/12/14 03:15:23;;;;;;;5.07;4.55;;;11.70;99.90;;;;;;5045094;28;20201;-84
2021/12/14 03:17:53;;;;;;;4.80;4.18;;;11.70;99.90;;;;;;5032213;28;20238;-83
2021/12/14 03:20:21;;;;;;;6.18;4.97;;;11.70;99.90;;;;;;5005784;28;20169;-83
2021/12/14 03:23:05;;;;;;;5.82;4.60;;;11.70;99.90;;;;;;5007871;28;20181;-84
2021/12/14 03:25:33;;;;;;;4.68;4.13;;;11.70;99.90;;;;;;5011413;28;20201;-83
2021/12/14 03:28:00;;;;;;;5.78;5.15;;;11.70;99.90;;;;;;5018458;28;20174;-84
2021/12/14 03:30:26;;;;;;;5.78;4.80;;;11.70;99.90;;;;;;5019244;28;20264;-84
2021/12/14 03:33:12;;;;;;;5.63;5.10;;;11.70;99.90;;;;;;5034884;28;20239;-83
2021/12/14 03:35:45;;;;;;;6.07;5.45;;;11.70;99.90;;;;;;5061825;28;20612;-84
2021/12/14 03:38:17;;;;;;;5.43;4.85;;;11.70;99.90;;;;;;5024253;28;20184;-84
2021/12/14 03:40:55;;;;;;;7.35;6.03;;;11.70;99.90;;;;;;5012362;28;20246;-85
2021/12/14 03:43:22;;;;;;;6.55;5.20;;;11.70;99.90;;;;;;5006386;28;20673;-85
2021/12/14 03:45:51;;;;;;;6.63;5.00;;;11.70;99.90;;;;;;5015260;28;20198;-85
2021/12/14 03:48:20;;;;;;;7.35;5.15;;;11.70;99.90;;;;;;5015106;28;20170;-84
2021/12/14 03:50:46;;;;;;;7.80;5.75;;;11.70;99.90;;;;;;5015838;28;20182;-85
2021/12/14 03:53:13;;;;;;;6.50;5.20;;;11.80;99.90;;;;;;5014542;28;20426;-85
2021/12/14 03:55:46;;;;;;;6.40;5.43;;;11.70;99.90;;;;;;5015156;28;20705;-85
2021/12/14 03:58:19;;;;;;;7.30;5.97;;;11.70;99.90;;;;;;4999712;28;20213;-86
2021/12/14 04:00:51;;;;;;;8.10;6.38;;;11.70;99.90;;;;;;5016466;28;20260;-86
2021/12/14 04:03:19;;;;;;;7.22;5.75;;;11.70;99.90;;;;;;5033063;28;20527;-85
2021/12/14 04:06:09;;;;;;;6.72;6.03;;;11.70;99.90;;;;;;5026527;28;20305;-85
2021/12/14 04:08:36;;;;;;;6.95;6.18;;;11.70;99.90;;;;;;5014544;28;20204;-85
2021/12/14 04:11:04;;;;;;;8.65;7.18;;;11.70;99.90;;;;;;4997445;28;20193;-84
2021/12/14 04:13:37;;;;;;;7.05;5.72;;;11.70;99.90;;;;;;5014319;28;20212;-84
2021/12/14 04:16:08;;;;;;;7.85;6.15;;;11.70;99.90;;;;;;4997777;28;20189;-84
2021/12/14 04:18:35;;;;;;;8.65;7.20;;;11.70;99.90;;;;;;5032051;28;20169;-84
2021/12/14 04:21:03;;;;;;;8.93;7.40;;;11.70;99.90;;;;;;5013831;28;20208;-84
2021/12/14 04:23:36;;;;;;;9.07;6.82;;;11.70;99.90;;;;;;5014306;28;20262;-84
2021/12/14 04:26:05;;;;;;;9.43;7.95;;;11.70;99.90;;;;;;5014886;28;20228;-85
2021/12/14 04:28:37;;;;;;;11.23;7.47;;;11.70;99.90;;;;;;5015643;28;20253;-85
2021/12/14 04:31:03;;;;;;;9.50;7.88;;;11.70;99.90;;;;;;4981848;28;20189;-84
2021/12/14 04:33:32;;;;;;;9.40;7.53;;;11.70;99.90;;;;;;5013696;28;20206;-84
2021/12/14 04:36:02;;;;;;;10.00;7.35;;;11.70;99.90;;;;;;5014159;28;20196;-84
2021/12/14 04:38:31;;;;;;;10.25;7.45;;;11.70;99.90;;;;;;5014099;28;20181;-84
2021/12/14 04:52:19;;;;;;;9.20;7.80;;;11.70;99.90;;;;;;5025861;28;20205;-85
2021/12/14 04:54:54;;;;;;;10.68;7.93;;;11.70;99.90;;;;;;5042740;28;20166;-83
2021/12/14 04:57:27;;;;;;;10.07;7.20;;;11.70;99.90;;;;;;5010719;28;20181;-84
2021/12/14 04:59:56;;;;;;;8.75;7.82;;;11.70;99.90;;;;;;5019437;28;20169;-84
2021/12/14 05:02:27;;;;;;;8.73;7.30;;;11.70;99.90;;;;;;5019111;28;20170;-83
2021/12/14 05:05:03;;;;;;;10.85;9.25;;;11.70;99.90;;;;;;5028598;28;20223;-85
2021/12/14 05:09:59;;;;;;;9.73;7.60;;;11.70;99.90;;;;;;5016642;28;20176;-84
2021/12/14 05:12:28;;;;;;;11.38;8.77;;;11.70;99.90;;;;;;5015538;28;20193;-84
2021/12/14 05:15:08;;;;;;;10.30;8.02;;;11.60;99.90;;;;;;5015518;28;20744;-84
2021/12/14 05:17:39;;;;;;;9.98;8.63;;;11.60;99.90;;;;;;5014958;28;20197;-84
2021/12/14 05:20:08;;;;;;;11.00;8.40;;;11.60;99.90;;;;;;5014745;28;20173;-83
2021/12/14 05:22:37;;;;;;;11.27;9.00;;;11.60;99.90;;;;;;5014252;28;20177;-84
2021/12/14 05:25:12;;;;;;;13.25;9.57;;;11.60;99.90;;;;;;5014924;28;20262;-84
2021/12/14 05:27:48;;;;;;;10.13;7.50;;;11.60;99.90;;;;;;4981420;28;20173;-84
2021/12/14 05:30:28;;;;;;;11.10;8.25;;;11.50;99.90;;;;;;5014188;28;20165;-85
2021/12/14 05:33:17;;;;;;;9.68;7.00;;;11.50;99.90;;;;;;5031169;28;20236;-84
2021/12/14 05:35:47;;;;;;;11.25;8.60;;;11.50;99.90;;;;;;5031231;28;20182;-83
2021/12/14 05:38:20;;;;;;;12.80;8.65;;;11.50;99.90;;;;;;5013534;28;20700;-84
2021/12/14 05:43:18;;;;;;;12.82;8.93;;;11.50;99.90;;;;;;5013734;28;20688;-84
2021/12/14 05:46:22;;;;;;;9.88;7.63;;;11.50;99.90;;;;;;5014444;28;20201;-84
2021/12/14 05:49:11;;;;;;;10.48;7.07;;;11.50;99.90;;;;;;5034091;28;20585;-86
2021/12/14 05:51:38;;;;;;;11.00;7.60;;;11.50;99.90;;;;;;5014941;28;20574;-85
2021/12/14 05:54:05;;;;;;;14.90;8.20;;;11.50;99.90;;;;;;5013096;28;20158;-84
2021/12/14 05:56:31;;;;;;;10.20;8.15;;;11.50;99.90;;;;;;5012961;28;20281;-84
2021/12/14 05:58:59;;;;;;;10.02;7.60;;;11.50;99.90;;;;;;5015561;28;20252;-85
2021/12/14 06:01:32;;;;;;;10.48;7.93;;;11.50;99.90;;;;;;5016619;28;20170;-84
2021/12/14 06:04:06;;;;;;;14.40;8.52;;;11.50;99.90;;;;;;5016639;28;20270;-86
2021/12/14 06:06:34;;;;;;;9.80;7.38;;;11.50;99.90;;;;;;4999992;28;20560;-85
2021/12/14 06:09:07;;;;;;;12.75;7.65;;;11.50;99.90;;;;;;5016111;28;20280;-84
2021/12/14 06:11:36;;;;;;;9.90;6.93;;;11.50;99.90;;;;;;5016206;28;20216;-85
2021/12/14 06:14:04;;;;;;;10.75;7.75;;;11.50;99.90;;;;;;5016056;28;20162;-85
2021/12/14 06:16:36;;;;;;;9.82;7.45;;;11.50;99.90;;;;;;5016110;28;20185;-85
2021/12/14 06:19:23;;;;;;;10.80;7.88;;;11.50;99.90;;;;;;4999969;28;20226;-85
2021/12/14 06:22:05;;;;;;;11.48;7.30;;;11.40;99.90;;;;;;5016177;28;20177;-85
2021/12/14 06:24:34;;;;;;;8.65;7.00;;;11.40;99.90;;;;;;5016053;28;20173;-85
2021/12/14 06:27:03;;;;;;;11.27;8.13;;;11.40;99.90;;;;;;4999743;28;20200;-85
2021/12/14 06:29:43;;;;;;;8.27;7.40;;;11.40;99.90;;;;;;5033444;28;20176;-85
2021/12/14 06:32:13;;;;;;;10.63;8.35;;;11.40;99.90;;;;;;5033685;28;20292;-85
2021/12/14 06:34:52;;;;;;;9.50;6.82;;;11.40;99.90;;;;;;4999538;28;20165;-85
2021/12/14 06:37:28;;;;;;;12.75;7.40;;;11.40;99.90;;;;;;4999721;28;20173;-84
2021/12/14 06:40:06;;;;;;;9.82;7.70;;;11.40;99.90;;;;;;5015965;28;20173;-83
2021/12/14 06:42:36;;;;;;;9.88;7.80;;;11.40;99.90;;;;;;5033507;28;20170;-82
2021/12/14 06:45:06;;;;;;;8.68;7.78;;;11.40;99.90;;;;;;5015990;28;20596;-82
2021/12/14 06:47:32;;;;;;;10.15;8.13;;;11.40;99.90;;;;;;4999826;28;20182;-82
2021/12/14 06:50:06;;;;;;;10.83;7.67;;;11.30;99.90;;;;;;5021015;28;20177;-83
2021/12/14 06:52:33;;;;;;;11.75;8.02;;;11.30;99.90;;;;;;5029517;28;20643;-82
2021/12/14 06:55:21;;;;;;;8.93;6.60;;;11.30;99.90;;;;;;5016046;28;20188;-72
2021/12/14 06:58:16;;;;;;;11.18;7.15;;;11.30;99.90;;;;;;5033138;28;20169;-72
2021/12/14 07:00:49;;;;;;;8.25;6.05;;;11.30;99.90;;;;;;4999328;28;20181;-73
2021/12/14 07:03:15;;;;;;;8.43;7.15;;;11.30;99.90;;;;;;5015247;28;20543;-76
2021/12/14 07:05:49;;;;;;;9.10;6.70;;;11.30;99.90;;;;;;5032911;28;20189;-78
2021/12/14 07:08:26;;;;;;;8.98;7.10;;;11.30;99.90;;;;;;4998988;28;20173;-78
2021/12/14 07:10:53;;;;;;;11.90;6.95;;;11.30;99.90;;;;;;5033169;28;20174;-78
2021/12/14 07:13:28;;;;;;;8.98;7.10;;;11.20;99.90;;;;;;5032951;28;20288;-76
2021/12/14 07:15:54;;;;;;;9.20;6.65;;;11.20;99.90;;;;;;5032340;28;20192;-77
2021/12/14 07:18:26;;;;;;;8.80;6.65;;;11.20;99.90;;;;;;5014549;28;20170;-76
2021/12/14 07:20:52;;;;;;;12.75;7.68;;;11.20;99.90;;;;;;5031934;28;20169;-77
2021/12/14 07:23:18;;;;;;;10.13;6.63;;;11.20;99.90;;;;;;5032300;28;20602;-76
2021/12/14 07:26:09;;;;;;;10.70;8.75;;;11.20;99.90;;;;;;5032495;28;20287;-76
2021/12/14 07:28:41;;;;;;;13.00;9.55;;;11.20;99.90;;;;;;5014414;28;20169;-76
2021/12/14 07:31:20;;;;;;;13.75;10.55;;;11.20;99.90;;;;;;5014077;28;20166;-77
2021/12/14 07:33:52;;;;;;;15.13;10.30;;;11.20;99.90;;;;;;5031894;28;20605;-77
2021/12/14 07:36:39;;;;;;;12.35;9.38;;;11.20;99.90;;;;;;5014907;28;20212;-76
2021/12/14 07:39:08;;;;;;;16.40;11.85;;;11.20;99.90;;;;;;5032793;28;20513;-77
2021/12/14 07:41:44;;;;;;;14.35;10.32;;;11.30;99.90;;;;;;5032115;28;20166;-76
2021/12/14 07:44:18;;;;;;;13.55;9.82;;;11.30;99.90;;;;;;5014347;28;20223;-77
2021/12/14 07:46:48;;;;;;;13.98;7.60;;;11.30;99.90;;;;;;5014519;28;20602;-77
2021/12/14 07:49:28;;;;;;;11.23;7.50;;;11.20;99.90;;;;;;5032473;28;20207;-77
2021/12/14 07:52:16;;;;;;;11.82;8.00;;;11.20;99.90;;;;;;5014641;28;20201;-76
2021/12/14 07:54:49;;;;;;;10.00;7.32;;;11.30;99.90;;;;;;4997853;28;20185;-76
2021/12/14 07:57:26;;;;;;;11.57;7.90;;;11.20;99.90;;;;;;5014251;28;20182;-77
2021/12/14 07:59:58;;;;;;;9.05;6.80;;;11.20;99.90;;;;;;5031547;28;20169;-77
2021/12/14 08:02:38;;;;;;;13.65;9.60;;;11.20;99.90;;;;;;5032031;28;20165;-77
2021/12/14 08:05:24;;;;;;;9.23;8.15;;;11.20;99.90;;;;;;5031755;28;20407;-77
2021/12/14 08:08:09;;;;;;;10.80;9.00;;;11.20;99.90;;;;;;5017363;28;20275;-77
2021/12/14 08:10:40;;;;;;;12.13;8.60;;;11.30;99.90;;;;;;5031872;28;20550;-77
2021/12/14 08:13:11;;;;;;;9.70;8.00;;;11.30;99.90;;;;;;5014256;28;20563;-77
2021/12/14 08:15:40;;;;;;;10.73;7.05;;;11.30;99.90;;;;;;5031549;28;20277;-77
2021/12/14 08:18:12;;;;;;;12.40;7.75;;;11.30;99.90;;;;;;5032063;28;20173;-76
2021/12/14 08:20:53;;;;;;;10.98;8.48;;;11.30;99.90;;;;;;4997592;28;20176;-77
2021/12/14 08:23:28;;;;;;;10.98;7.68;;;11.30;99.90;;;;;;5032401;28;20174;-76
2021/12/14 08:26:14;;;;;;;14.50;11.50;;;11.30;99.90;;;;;;5032217;28;20193;-77
2021/12/14 08:28:49;;;;;;;11.23;8.98;;;11.40;99.90;;;;;;5033343;28;20173;-77
2021/12/14 08:31:16;;;;;;;14.75;8.88;;;11.40;99.90;;;;;;5032361;28;20165;-76
2021/12/14 08:33:43;;;;;;;12.02;10.15;;;11.40;99.90;;;;;;4997509;28;20212;-81
2021/12/14 08:36:12;;;;;;;10.70;9.60;;;11.40;99.90;;;;;;5013913;28;20197;-80
2021/12/14 08:38:38;;;;;;;9.05;6.60;;;11.40;99.90;;;;;;5031576;28;20623;-80
2021/12/14 08:41:15;;;;;;;7.90;5.47;;;11.40;99.90;;;;;;5013461;28;20301;-79
2021/12/14 08:43:48;;;;;;;7.50;4.85;;;11.40;99.90;;;;;;5013647;28;20602;-79
2021/12/14 08:46:20;;;;;;;5.28;4.15;;;11.50;99.90;;;;;;5036677;28;20208;-80
2021/12/14 08:48:51;;;;;;;6.55;5.32;;;11.50;99.90;;;;;;5031450;28;20185;-81
2021/12/14 08:51:30;;;;;;;5.80;4.70;;;11.50;99.90;;;;;;5031496;28;20181;-80
2021/12/14 08:53:59;;;;;;;5.68;4.35;;;11.50;99.90;;;;;;5031890;28;20503;-81
2021/12/14 08:56:28;;;;;;;4.32;3.90;;;11.50;99.90;;;;;;5032212;28;20201;-81
2021/12/14 08:58:54;;;;;;;7.60;4.72;;;11.50;99.90;;;;;;5031433;28;20605;-81
2021/12/14 09:01:27;;;;;;;5.72;4.63;;;11.50;99.90;;;;;;5032257;28;20181;-81
2021/12/14 09:03:58;;;;;;;6.95;5.25;;;11.50;99.90;;;;;;5032269;28;20504;-81
2021/12/14 09:06:30;;;;;;;5.35;4.30;;;11.50;99.90;;;;;;5034026;28;20232;-80
2021/12/14 09:09:00;;;;;;;6.07;4.95;;;11.60;99.90;;;;;;5048949;28;20169;-81
2021/12/14 09:11:31;;;;;;;6.07;5.10;;;11.60;99.90;;;;;;5046424;28;20170;-79
2021/12/14 09:13:57;;;;;;;5.68;5.07;;;11.60;99.90;;;;;;5030443;28;20186;-81
2021/12/14 09:16:27;;;;;;;6.47;5.82;;;11.60;99.90;;;;;;5028743;28;20217;-79
2021/12/14 09:19:15;;;;;;;5.47;4.78;;;11.60;99.90;;;;;;5045859;28;20173;-79
2021/12/14 09:21:45;;;;;;;7.90;4.00;;;11.60;99.90;;;;;;5040579;28;20205;-80
2021/12/14 09:24:16;;;;;;;5.85;3.92;;;11.70;99.90;;;;;;5036720;28;20537;-81
2021/12/14 09:26:47;;;;;;;6.18;4.68;;;11.70;99.90;;;;;;5035364;28;20244;-81
2021/12/14 09:29:17;;;;;;;5.68;4.43;;;11.70;99.90;;;;;;5015310;28;20166;-81
2021/12/14 09:31:48;;;;;;;5.07;4.35;;;11.70;99.90;;;;;;5033349;28;20193;-82
2021/12/14 09:34:17;;;;;;;5.50;4.05;;;11.70;99.90;;;;;;5036285;28;20196;-80
2021/12/14 09:36:44;;;;;;;5.68;4.57;;;11.80;99.90;;;;;;5060471;22;20258;-77
2021/12/14 09:39:17;;;;;;;6.15;4.00;;;11.80;99.90;;;;;;5040671;28;20200;-77
2021/12/14 09:41:45;;;;;;;5.93;4.28;;;11.80;99.90;;;;;;5047732;28;20172;-77
2021/12/14 09:44:16;;;;;;;4.60;4.20;;;11.80;99.90;;;;;;5054302;28;20508;-77
2021/12/14 09:46:45;;;;;;;4.85;4.00;;;11.90;99.90;;;;;;5053216;28;20196;-77
2021/12/14 09:49:12;;;;;;;5.30;3.97;;;11.90;99.90;;;;;;5052475;28;20226;-77
2021/12/14 09:51:47;;;;;;;9.57;3.50;;;11.90;99.90;;;;;;5054156;28;20161;-77
2021/12/14 09:54:18;;;;;;;6.72;3.80;;;12.00;99.90;;;;;;5053791;28;20172;-77
2021/12/14 09:56:49;;;;;;;4.05;2.80;;;12.00;99.90;;;;;;5050353;28;20247;-76
2021/12/14 09:59:16;;;;;;;3.90;3.45;;;12.00;99.90;;;;;;5033606;28;20174;-76
2021/12/14 10:01:58;;;;;;;5.40;4.10;;;12.00;99.90;;;;;;5034465;28;20262;-76
2021/12/14 10:04:34;;;;;;;5.85;3.63;;;12.00;99.90;;;;;;5033556;28;20174;-76
2021/12/14 10:07:03;;;;;;;5.28;4.20;;;12.00;99.90;;;;;;5033645;28;20602;-77
2021/12/14 10:09:37;;;;;;;4.40;3.85;;;12.00;99.90;;;;;;5032189;28;20170;-76
2021/12/14 10:15:04;;;;;;;6.93;3.17;;;12.00;99.90;;;;;;5025124;28;20316;-76
2021/12/14 10:17:30;;;;;;;5.97;3.78;;;12.10;99.90;;;;;;5032661;28;20185;-76
2021/12/14 10:19:56;;;;;;;4.60;3.70;;;12.10;99.90;;;;;;5033955;28;20168;-76
2021/12/14 10:22:26;;;;;;;6.20;3.90;;;12.10;99.90;;;;;;5036543;28;20634;-79
2021/12/14 10:24:54;;;;;;;4.35;3.58;;;12.10;99.90;;;;;;5043817;28;20575;-76
2021/12/14 10:27:23;;;;;;;6.70;3.75;;;12.10;99.90;;;;;;5021551;28;20408;-78
2021/12/14 10:29:50;;;;;;;6.60;3.85;;;12.20;99.90;;;;;;5032479;28;20176;-78
2021/12/14 10:32:24;;;;;;;6.78;4.20;;;12.20;99.90;;;;;;5050895;28;20719;-78
2021/12/14 10:34:58;;;;;;;5.65;4.35;;;12.20;99.90;;;;;;5052536;28;20174;-79
2021/12/14 10:37:38;;;;;;;6.28;4.53;;;12.20;99.90;;;;;;5052696;28;20228;-78
2021/12/14 10:45:20;;;;;;;5.18;4.65;;;12.30;99.90;;;;;;5032674;28;20201;-77
2021/12/14 10:47:46;;;;;;;6.50;4.75;;;12.30;99.90;;;;;;5032987;28;20284;-77
2021/12/14 10:50:16;;;;;;;7.50;6.40;;;12.30;99.90;;;;;;5032519;28;20305;-78
2021/12/14 10:52:43;;;;;;;6.38;4.95;;;12.30;99.90;;;;;;5048089;28;21174;-77
2021/12/14 10:55:31;;;;;;;6.47;5.40;;;12.40;99.90;;;;;;5033064;28;20180;-77
2021/12/14 10:57:57;;;;;;;7.05;5.82;;;12.40;99.90;;;;;;5033953;28;20812;-77
2021/12/14 11:00:33;;;;;;;7.50;5.80;;;12.40;99.90;;;;;;5032670;28;20297;-77
2021/12/14 11:03:02;;;;;;;8.25;4.93;;;12.40;99.90;;;;;;5031159;28;20579;-77
2021/12/14 11:05:32;;;;;;;6.88;5.80;;;12.40;99.90;;;;;;5031628;28;20715;-77
2021/12/14 11:07:58;;;;;;;9.70;7.28;;;12.40;99.90;;;;;;5032591;28;20173;-77
2021/12/14 11:10:36;;;;;;;7.25;5.95;;;12.40;99.90;;;;;;5031013;28;20177;-77
2021/12/14 11:13:08;;;;;;;7.07;5.65;;;12.40;99.90;;;;;;5032149;28;20206;-77
2021/12/14 11:15:46;;;;;;;8.50;6.07;;;12.40;99.90;;;;;;5031575;28;20166;-77
2021/12/14 11:18:21;;;;;;;6.57;5.18;;;12.40;99.90;;;;;;5032862;28;20198;-77
2021/12/14 11:20:52;;;;;;;6.70;5.07;;;12.40;99.90;;;;;;5030868;28;20668;-77
2021/12/14 11:23:23;;;;;;;5.93;4.70;;;12.40;99.90;;;;;;5032464;28;20223;-77
2021/12/14 11:25:49;;;;;;;8.80;4.93;;;12.40;99.90;;;;;;5032268;28;20244;-77
2021/12/14 11:28:25;;;;;;;5.57;4.30;;;12.40;99.90;;;;;;5031416;28;20232;-77
2021/12/14 11:31:03;;;;;;;6.45;4.63;;;12.50;99.90;;;;;;5031699;28;20165;-77
2021/12/14 11:33:44;;;;;;;7.00;5.82;;;12.50;99.90;;;;;;5030539;28;20387;-77
2021/12/14 11:36:33;;;;;;;6.75;4.40;;;12.50;99.90;;;;;;5032142;28;20220;-77
2021/12/14 11:39:28;;;;;;;7.00;5.20;;;12.60;99.90;;;;;;5021547;28;20173;-77
2021/12/14 11:42:01;;;;;;;7.90;5.82;;;12.60;99.90;;;;;;4997774;28;20189;-78
2021/12/14 11:44:38;;;;;;;11.10;6.15;;;12.60;99.90;;;;;;5031698;28;20224;-78
2021/12/14 11:47:07;;;;;;;9.10;5.85;;;12.60;99.90;;;;;;5013809;28;20200;-78
2021/12/14 11:49:43;;;;;;;11.40;7.63;;;12.70;99.90;;;;;;5030312;28;20177;-78
2021/12/14 11:52:10;;;;;;;8.43;5.70;;;12.70;99.90;;;;;;5030689;28;20201;-78
2021/12/14 11:54:45;;;;;;;7.73;5.80;;;12.80;99.90;;;;;;5031519;28;20605;-78
2021/12/14 11:57:12;;;;;;;10.45;7.28;;;12.80;99.90;;;;;;5020177;28;20617;-77
2021/12/14 11:59:38;;;;;;;11.43;6.65;;;12.80;99.90;;;;;;5010876;28;20158;-77
2021/12/14 12:02:05;;;;;;;7.50;5.53;;;12.80;99.90;;;;;;5011957;28;20206;-81
2021/12/14 12:04:35;;;;;;;8.70;6.13;;;12.90;99.90;;;;;;5012135;28;20573;-80
2021/12/14 12:09:50;;;;;;;6.30;5.38;;;12.90;99.90;;;;;;5013292;28;20179;-80
2021/12/14 12:12:27;;;;;;;6.53;5.43;;;12.90;99.90;;;;;;5035050;28;20202;-79
2021/12/14 12:15:15;;;;;;;8.80;5.10;;;12.90;99.90;;;;;;5043451;28;20569;-79
2021/12/14 12:17:43;;;;;;;6.20;5.22;;;13.00;99.90;;;;;;5049636;28;20610;-79
2021/12/14 12:20:21;;;;;;;7.10;5.60;;;13.00;99.90;;;;;;5034656;28;20196;-78
2021/12/14 12:22:52;;;;;;;6.65;6.00;;;13.00;99.90;;;;;;5036943;28;20234;-77
2021/12/14 12:25:31;;;;;;;8.80;7.20;;;13.00;99.90;;;;;;5031492;28;20209;-77
2021/12/14 12:27:59;;;;;;;8.23;6.72;;;13.00;99.90;;;;;;5042693;28;20669;-77
2021/12/14 12:30:31;;;;;;;8.27;6.15;;;13.00;99.90;;;;;;5041508;28;20256;-78
2021/12/14 12:33:19;;;;;;;8.23;6.50;;;13.10;99.90;;;;;;5044555;28;20213;-78
2021/12/14 12:36:00;;;;;;;10.00;7.43;;;13.10;99.90;;;;;;5038043;28;20192;-78
2021/12/14 12:38:44;;;;;;;7.85;6.47;;;13.10;99.90;;;;;;5011858;28;20263;-78
2021/12/14 12:41:33;;;;;;;7.70;6.90;;;13.10;99.90;;;;;;5027059;28;20258;-78
2021/12/14 12:44:05;;;;;;;7.43;5.67;;;13.20;99.90;;;;;;5010599;28;20174;-78
2021/12/14 12:46:54;;;;;;;6.70;5.80;;;13.20;99.90;;;;;;5011310;28;20632;-78
2021/12/14 12:49:20;;;;;;;8.00;6.50;;;13.20;99.90;;;;;;5012357;28;20624;-78
2021/12/14 12:51:57;;;;;;;9.00;7.00;;;13.20;99.90;;;;;;5011189;28;20566;-78
2021/12/14 12:54:26;;;;;;;11.50;7.20;;;13.20;99.90;;;;;;5011302;28;20660;-79
2021/12/14 12:57:36;;;;;;;13.13;7.60;;;13.30;99.90;;;;;;5026443;28;20666;-79
2021/12/14 13:00:32;;;;;;;11.43;7.87;;;13.30;99.90;;;;;;5025727;28;20668;-78
2021/12/14 13:02:59;;;;;;;14.60;7.47;;;13.30;99.90;;;;;;5026538;28;20601;-79
2021/12/14 13:06:03;;;;;;;9.40;7.77;;;13.40;99.90;;;;;;5026726;28;20624;-79
2021/12/14 13:08:55;;;;;;;7.40;5.70;;;13.40;99.90;;;;;;4988994;28;20185;-78
2021/12/14 13:11:39;;;;;;;6.80;5.77;;;13.40;99.90;;;;;;5009315;28;20997;-78
2021/12/14 13:14:12;;;;;;;10.07;5.70;;;13.40;99.90;;;;;;5015770;28;20569;-79
2021/12/14 13:16:41;;;;;;;6.73;5.93;;;13.50;99.90;;;;;;5014841;28;21093;-79
2021/12/14 13:19:10;;;;;;;6.43;5.63;;;13.50;99.90;;;;;;5014443;28;20576;-79
2021/12/14 13:22:06;;;;;;;9.80;5.83;;;13.50;99.90;;;;;;5015213;28;20568;-78
2021/12/14 13:24:36;;;;;;;7.10;6.40;;;13.50;99.90;;;;;;5013329;28;20582;-78
2021/12/14 13:27:12;;;;;;;11.40;7.07;;;13.50;99.90;;;;;;5015775;28;20988;-78
2021/12/14 13:29:59;;;;;;;9.53;7.10;;;13.50;99.90;;;;;;5013890;28;20591;-77
2021/12/14 13:32:29;;;;;;;7.63;6.60;;;13.60;99.90;;;;;;5014693;28;20620;-77
2021/12/14 13:35:18;;;;;;;8.68;6.05;;;13.60;99.90;;;;;;5014596;28;20660;-77
2021/12/14 13:37:48;;;;;;;8.60;7.03;;;13.60;99.90;;;;;;5013321;28;20205;-78
2021/12/14 13:40:20;;;;;;;7.03;6.10;;;13.60;99.90;;;;;;5012989;28;20261;-78
2021/12/14 13:43:10;;;;;;;8.00;6.72;;;13.60;99.90;;;;;;5014671;28;21221;-78